createdAt,value
2018-05-29T00:01:25.432Z,44.10
2018-05-29T00:03:54.577Z,44.30
2018-05-29T00:06:23.679Z,44.20
2018-05-29T00:08:52.812Z,44.00
2018-05-29T00:11:22.216Z,44.10
2018-05-29T00:13:51.351Z,44.40
2018-05-29T00:16:20.494Z,44.20
2018-05-29T00:18:50.504Z,44.20
2018-05-29T00:21:19.610Z,44.20
2018-05-29T00:23:48.735Z,44.40
2018-05-29T00:26:18.669Z,44.80
2018-05-29T00:28:48.499Z,44.40
2018-05-29T00:31:18.338Z,44.40
2018-05-29T00:33:50.726Z,44.30
2018-05-29T00:36:20.564Z,44.10
2018-05-29T00:38:52.305Z,44.10
2018-05-29T00:41:21.412Z,44.40
2018-05-29T00:43:50.611Z,44.50
2018-05-29T00:46:19.781Z,44.60
2018-05-29T00:48:48.853Z,45.40
2018-05-29T00:51:19.561Z,44.70
2018-05-29T00:53:48.697Z,44.80
2018-05-29T00:56:18.659Z,45.10
2018-05-29T00:58:48.596Z,44.70
2018-05-29T01:01:19.293Z,44.70
2018-05-29T01:03:48.444Z,45.20
2018-05-29T01:06:19.038Z,44.90
2018-05-29T01:08:48.176Z,44.80
2018-05-29T01:11:20.709Z,44.70
2018-05-29T01:13:50.669Z,45.00
2018-05-29T01:16:20.111Z,45.00
2018-05-29T01:18:49.241Z,45.10
2018-05-29T01:21:18.504Z,45.30
2018-05-29T01:23:47.600Z,45.30
2018-05-29T01:26:17.492Z,45.30
2018-05-29T01:28:46.597Z,45.30
2018-05-29T01:31:15.823Z,45.50
2018-05-29T01:33:44.923Z,45.90
2018-05-29T01:36:14.079Z,45.90
2018-05-29T01:38:43.209Z,46.70
2018-05-29T01:41:12.297Z,46.10
2018-05-29T01:43:41.433Z,46.50
2018-05-29T01:46:10.537Z,46.50
2018-05-29T01:48:39.696Z,46.50
2018-05-29T01:51:08.787Z,46.40
2018-05-29T01:53:37.946Z,46.40
2018-05-29T01:56:07.817Z,46.40
2018-05-29T01:58:39.107Z,46.40
2018-05-29T02:01:08.515Z,46.30
2018-05-29T02:03:37.715Z,46.30
2018-05-29T02:06:06.896Z,46.30
2018-05-29T02:08:35.974Z,47.10
2018-05-29T02:11:05.092Z,47.00
2018-05-29T02:13:34.938Z,47.10
2018-05-29T02:16:04.866Z,47.20
2018-05-29T02:18:33.949Z,47.20
2018-05-29T02:21:03.025Z,47.20
2018-05-29T02:23:32.144Z,47.20
2018-05-29T02:26:01.240Z,47.50
2018-05-29T02:28:30.343Z,47.60
2018-05-29T02:30:59.505Z,47.60
2018-05-29T02:33:28.574Z,47.60
2018-05-29T02:35:57.677Z,47.50
2018-05-29T02:38:26.799Z,47.90
2018-05-29T02:40:55.913Z,48.00
2018-05-29T02:43:25.000Z,48.00
2018-05-29T02:45:57.443Z,47.90
2018-05-29T02:48:26.516Z,48.10
2018-05-29T02:50:55.624Z,48.00
2018-05-29T02:53:25.565Z,48.40
2018-05-29T02:55:54.649Z,48.60
2018-05-29T02:58:23.731Z,48.40
2018-05-29T03:00:56.330Z,48.70
2018-05-29T03:03:26.223Z,48.60
2018-05-29T03:05:55.334Z,48.60
2018-05-29T03:08:27.851Z,48.60
2018-05-29T03:10:56.975Z,48.60
2018-05-29T03:13:27.450Z,48.60
2018-05-29T03:15:57.381Z,48.90
2018-05-29T03:18:26.823Z,48.90
2018-05-29T03:20:55.936Z,49.40
2018-05-29T03:23:25.068Z,49.10
2018-05-29T03:25:56.406Z,49.20
2018-05-29T03:28:25.543Z,50.00
2018-05-29T03:30:54.680Z,49.00
2018-05-29T03:33:24.677Z,49.90
2018-05-29T03:35:53.755Z,49.30
2018-05-29T03:38:22.887Z,49.20
2018-05-29T03:40:52.792Z,49.70
2018-05-29T03:43:21.880Z,48.90
2018-05-29T03:45:50.942Z,48.90
2018-05-29T03:48:23.528Z,49.00
2018-05-29T03:50:55.126Z,48.90
2018-05-29T03:53:25.026Z,49.20
2018-05-29T03:55:54.782Z,49.10
2018-05-29T03:58:24.619Z,48.70
2018-05-29T04:00:54.630Z,48.80
2018-05-29T04:03:23.716Z,48.80
2018-05-29T04:05:52.841Z,48.80
2018-05-29T04:08:21.952Z,48.50
2018-05-29T04:10:53.533Z,48.00
2018-05-29T04:13:22.699Z,47.90
2018-05-29T04:15:51.843Z,47.90
2018-05-29T04:18:21.016Z,47.90
2018-05-29T04:23:50.008Z,47.50
2018-05-29T04:26:19.095Z,48.10
2018-05-29T04:28:48.221Z,47.30
2018-05-29T04:31:17.296Z,47.40
2018-05-29T04:33:46.364Z,47.60
2018-05-29T04:36:15.441Z,47.30
2018-05-29T04:38:44.693Z,46.70
2018-05-29T04:41:14.577Z,46.70
2018-05-29T04:43:44.543Z,47.20
2018-05-29T04:46:13.651Z,47.20
2018-05-29T04:48:42.729Z,47.00
2018-05-29T04:51:11.832Z,46.40
2018-05-29T04:53:40.933Z,46.40
2018-05-29T04:56:10.117Z,46.60
2018-05-29T04:58:39.993Z,46.60
2018-05-29T05:01:09.157Z,46.50
2018-05-29T05:03:39.034Z,46.70
2018-05-29T05:06:08.169Z,46.60
2018-05-29T05:08:37.274Z,46.70
2018-05-29T05:11:07.732Z,46.70
2018-05-29T05:13:36.969Z,46.70
2018-05-29T05:16:06.852Z,46.80
2018-05-29T05:18:35.981Z,46.70
2018-05-29T05:21:05.158Z,46.80
2018-05-29T05:23:34.330Z,46.80
2018-05-29T05:26:03.416Z,46.80
2018-05-29T05:28:32.512Z,46.90
2018-05-29T05:31:01.777Z,46.40
2018-05-29T05:33:31.649Z,45.60
2018-05-29T05:36:00.756Z,45.60
2018-05-29T05:38:29.860Z,45.70
2018-05-29T05:40:59.005Z,45.40
2018-05-29T05:43:28.100Z,45.70
2018-05-29T05:45:57.237Z,45.50
2018-05-29T05:48:26.347Z,45.30
2018-05-29T05:50:55.436Z,44.50
2018-05-29T05:53:24.745Z,44.20
2018-05-29T05:55:53.866Z,44.20
2018-05-29T05:58:22.953Z,43.80
2018-05-29T06:00:52.112Z,44.50
2018-05-29T06:03:21.208Z,42.90
2018-05-29T06:05:50.608Z,43.30
2018-05-29T06:08:19.791Z,43.50
2018-05-29T06:10:48.903Z,43.00
2018-05-29T06:13:18.000Z,43.10
2018-05-29T06:15:47.064Z,42.20
2018-05-29T06:18:16.168Z,43.20
2018-05-29T06:20:45.234Z,41.70
2018-05-29T06:23:14.363Z,41.50
2018-05-29T06:25:43.461Z,40.90
2018-05-29T06:28:12.611Z,41.30
2018-05-29T06:30:41.895Z,40.30
2018-05-29T06:33:10.988Z,40.60
2018-05-29T06:35:40.132Z,40.10
2018-05-29T06:38:09.284Z,39.80
2018-05-29T06:40:39.204Z,39.20
2018-05-29T06:43:08.306Z,39.20
2018-05-29T06:45:37.487Z,39.30
2018-05-29T06:48:06.550Z,38.30
2018-05-29T06:50:35.652Z,37.70
2018-05-29T06:53:04.740Z,36.80
2018-05-29T06:55:33.832Z,36.60
2018-05-29T06:58:03.025Z,36.60
2018-05-29T07:00:32.174Z,37.00
2018-05-29T07:03:01.239Z,36.80
2018-05-29T07:05:30.341Z,36.30
2018-05-29T07:08:00.172Z,35.90
2018-05-29T07:10:30.002Z,36.40
2018-05-29T07:12:59.160Z,36.40
2018-05-29T07:15:28.228Z,35.40
2018-05-29T07:17:57.325Z,35.00
2018-05-29T07:20:27.192Z,35.40
2018-05-29T07:22:56.294Z,35.40
2018-05-29T07:25:25.403Z,34.20
2018-05-29T07:27:54.502Z,34.20
2018-05-29T07:30:23.664Z,34.30
2018-05-29T07:32:52.752Z,31.80
2018-05-29T07:35:21.873Z,31.80
2018-05-29T07:37:50.953Z,30.90
2018-05-29T07:40:20.082Z,30.50
2018-05-29T07:42:49.150Z,30.20
2018-05-29T07:45:19.094Z,29.80
2018-05-29T07:47:48.159Z,29.80
2018-05-29T07:50:18.051Z,30.10
2018-05-29T07:52:47.125Z,30.00
2018-05-29T07:55:16.996Z,28.90
2018-05-29T07:57:46.146Z,28.70
2018-05-29T08:00:15.253Z,28.50
2018-05-29T08:02:44.387Z,28.50
2018-05-29T08:05:14.216Z,29.10
2018-05-29T08:07:44.201Z,29.80
2018-05-29T08:10:13.295Z,29.80
2018-05-29T08:12:42.451Z,29.10
2018-05-29T08:15:11.577Z,27.20
2018-05-29T08:17:41.494Z,28.00
2018-05-29T08:20:11.537Z,28.00
2018-05-29T08:22:41.409Z,27.90
2018-05-29T08:25:10.552Z,27.80
2018-05-29T08:27:39.652Z,27.50
2018-05-29T08:30:09.491Z,27.60
2018-05-29T08:32:38.640Z,27.60
2018-05-29T08:35:09.397Z,27.10
2018-05-29T08:37:38.506Z,27.00
2018-05-29T08:40:07.677Z,26.60
2018-05-29T08:42:36.837Z,27.10
2018-05-29T08:45:06.192Z,27.70
2018-05-29T08:47:35.325Z,26.80
2018-05-29T08:50:04.556Z,26.90
2018-05-29T08:52:34.391Z,27.00
2018-05-29T08:55:04.564Z,26.90
2018-05-29T08:57:33.656Z,26.30
2018-05-29T09:00:02.848Z,26.50
2018-05-29T09:02:31.971Z,25.70
2018-05-29T09:05:01.047Z,25.80
2018-05-29T09:07:30.192Z,25.20
2018-05-29T09:09:59.317Z,26.60
2018-05-29T09:12:28.387Z,25.50
2018-05-29T09:14:57.525Z,25.50
2018-05-29T09:17:26.644Z,26.00
2018-05-29T09:19:55.753Z,25.50
2018-05-29T09:22:25.627Z,24.70
2018-05-29T09:24:54.738Z,24.70
2018-05-29T09:27:24.274Z,24.90
2018-05-29T09:29:53.449Z,24.50
2018-05-29T09:32:23.337Z,24.80
2018-05-29T09:34:53.211Z,24.20
2018-05-29T09:37:22.373Z,24.10
2018-05-29T09:39:52.248Z,24.20
2018-05-29T09:42:21.410Z,24.20
2018-05-29T09:44:51.333Z,24.30
2018-05-29T09:47:20.489Z,24.30
2018-05-29T09:49:49.627Z,24.40
2018-05-29T09:52:18.699Z,24.70
2018-05-29T09:54:48.017Z,24.40
2018-05-29T09:57:17.083Z,24.50
2018-05-29T09:59:46.146Z,24.50
2018-05-29T10:02:15.231Z,24.60
2018-05-29T10:04:45.089Z,23.10
2018-05-29T10:07:14.221Z,23.10
2018-05-29T10:09:43.320Z,23.10
2018-05-29T10:12:12.504Z,23.30
2018-05-29T10:14:41.648Z,23.10
2018-05-29T10:17:10.788Z,23.30
2018-05-29T10:19:39.890Z,23.70
2018-05-29T10:22:08.959Z,23.10
2018-05-29T10:24:38.087Z,23.80
2018-05-29T10:27:07.195Z,23.80
2018-05-29T10:29:36.308Z,23.30
2018-05-29T10:32:05.397Z,22.70
2018-05-29T10:34:34.491Z,22.80
2018-05-29T10:37:04.356Z,21.70
2018-05-29T10:39:33.454Z,21.60
2018-05-29T10:42:02.560Z,21.50
2018-05-29T10:44:31.765Z,21.90
2018-05-29T10:47:00.855Z,21.50
2018-05-29T10:49:30.792Z,22.00
2018-05-29T10:51:59.920Z,22.00
2018-05-29T10:54:28.999Z,22.20
2018-05-29T10:56:58.922Z,21.90
2018-05-29T10:59:28.107Z,21.90
2018-05-29T11:01:57.220Z,21.90
2018-05-29T11:04:26.329Z,22.00
2018-05-29T11:07:02.309Z,21.70
2018-05-29T11:09:31.431Z,22.50
2018-05-29T11:12:01.390Z,22.60
2018-05-29T11:14:30.559Z,23.00
2018-05-29T11:16:59.648Z,22.70
2018-05-29T11:19:28.743Z,21.60
2018-05-29T11:21:57.882Z,21.70
2018-05-29T11:24:26.989Z,22.00
2018-05-29T11:26:56.120Z,21.80
2018-05-29T11:29:25.389Z,21.60
2018-05-29T11:31:54.805Z,22.70
2018-05-29T11:34:24.166Z,22.20
2018-05-29T11:36:53.249Z,22.20
2018-05-29T11:39:22.383Z,21.50
2018-05-29T11:41:52.480Z,21.20
2018-05-29T11:44:21.583Z,21.20
2018-05-29T11:46:50.765Z,21.10
2018-05-29T11:49:20.595Z,21.40
2018-05-29T11:51:50.733Z,21.40
2018-05-29T11:54:20.776Z,21.20
2018-05-29T11:56:50.799Z,21.10
2018-05-29T11:59:20.702Z,20.90
2018-05-29T12:01:49.880Z,20.90
2018-05-29T12:04:19.085Z,21.10
2018-05-29T12:06:48.286Z,21.30
2018-05-29T12:09:17.375Z,20.40
2018-05-29T12:11:47.204Z,21.40
2018-05-29T12:14:17.132Z,21.50
2018-05-29T12:16:47.001Z,20.80
2018-05-29T12:19:16.076Z,20.70
2018-05-29T12:21:45.912Z,20.90
2018-05-29T12:24:15.781Z,20.80
2018-05-29T12:26:44.882Z,20.70
2018-05-29T12:29:13.984Z,21.00
2018-05-29T12:31:43.052Z,20.60
2018-05-29T12:34:12.168Z,20.20
2018-05-29T12:36:41.306Z,20.30
2018-05-29T12:39:10.393Z,20.70
2018-05-29T12:41:40.265Z,21.00
2018-05-29T12:44:09.453Z,20.50
2018-05-29T12:46:38.566Z,21.40
2018-05-29T12:49:07.749Z,20.30
2018-05-29T12:51:37.659Z,20.90
2018-05-29T12:54:06.817Z,20.50
2018-05-29T12:56:35.894Z,21.50
2018-05-29T12:59:05.125Z,20.40
2018-05-29T13:01:34.229Z,20.50
2018-05-29T13:04:05.749Z,20.40
2018-05-29T13:06:34.836Z,20.30
2018-05-29T13:09:03.903Z,20.40
2018-05-29T13:11:32.975Z,21.10
2018-05-29T13:14:02.060Z,20.50
2018-05-29T13:16:31.248Z,20.20
2018-05-29T13:19:01.205Z,20.20
2018-05-29T13:21:30.323Z,20.20
2018-05-29T13:23:59.466Z,20.60
2018-05-29T13:26:29.332Z,20.30
2018-05-29T13:28:59.267Z,20.80
2018-05-29T13:31:29.230Z,20.90
2018-05-29T13:33:58.363Z,20.90
2018-05-29T13:36:27.448Z,20.20
2018-05-29T13:38:56.576Z,20.10
2018-05-29T13:41:25.814Z,20.80
2018-05-29T13:43:54.977Z,20.80
2018-05-29T13:46:24.110Z,20.80
2018-05-29T13:48:53.217Z,21.40
2018-05-29T13:51:22.379Z,20.80
2018-05-29T13:53:52.313Z,20.80
2018-05-29T13:56:22.225Z,20.50
2018-05-29T13:58:51.366Z,20.50
2018-05-29T14:01:21.199Z,21.30
2018-05-29T14:03:51.145Z,20.80
2018-05-29T14:06:20.264Z,20.80
2018-05-29T14:08:49.395Z,21.10
2018-05-29T14:11:18.848Z,21.30
2018-05-29T14:13:48.792Z,20.20
2018-05-29T14:16:18.660Z,20.40
2018-05-29T14:18:47.808Z,20.30
2018-05-29T14:21:16.886Z,20.60
2018-05-29T14:23:46.018Z,21.00
2018-05-29T14:26:15.104Z,21.00
2018-05-29T14:28:44.231Z,20.70
2018-05-29T14:31:13.364Z,20.90
2018-05-29T14:33:42.558Z,21.20
2018-05-29T14:36:11.692Z,20.50
2018-05-29T14:38:40.965Z,20.90
2018-05-29T14:41:10.111Z,20.70
2018-05-29T14:43:40.744Z,21.40
2018-05-29T14:46:09.840Z,21.30
2018-05-29T14:48:38.939Z,20.50
2018-05-29T14:51:08.027Z,20.50
2018-05-29T14:53:37.113Z,20.90
2018-05-29T14:56:07.024Z,21.50
2018-05-29T14:58:36.142Z,21.20
2018-05-29T15:01:05.295Z,21.00
2018-05-29T15:03:34.398Z,23.70
2018-05-29T15:06:03.477Z,27.30
2018-05-29T15:08:32.650Z,23.00
2018-05-29T15:11:01.813Z,22.10
2018-05-29T15:13:31.753Z,22.60
2018-05-29T15:16:01.617Z,23.80
2018-05-29T15:18:30.710Z,23.90
2018-05-29T15:20:59.819Z,22.80
2018-05-29T15:23:28.952Z,22.10
2018-05-29T15:25:58.036Z,22.40
2018-05-29T15:28:27.427Z,22.70
2018-05-29T15:30:57.274Z,23.00
2018-05-29T15:33:26.413Z,23.10
2018-05-29T15:35:55.515Z,23.60
2018-05-29T15:38:24.688Z,23.50
2018-05-29T15:40:55.680Z,23.90
2018-05-29T15:43:24.812Z,24.00
2018-05-29T15:45:53.946Z,22.40
2018-05-29T15:48:23.032Z,22.90
2018-05-29T15:50:52.144Z,23.80
2018-05-29T15:53:21.253Z,22.50
2018-05-29T15:55:50.412Z,25.10
2018-05-29T15:58:20.292Z,23.30
2018-05-29T16:00:50.369Z,23.10
2018-05-29T16:03:20.297Z,24.10
2018-05-29T16:05:50.189Z,24.80
2018-05-29T16:08:19.292Z,25.10
2018-05-29T16:10:48.359Z,23.90
2018-05-29T16:13:17.960Z,22.80
2018-05-29T16:15:47.060Z,23.70
2018-05-29T16:18:16.198Z,24.40
2018-05-29T16:20:46.040Z,22.90
2018-05-29T16:23:15.884Z,21.60
2018-05-29T16:25:45.001Z,21.50
2018-05-29T16:28:14.160Z,25.10
2018-05-29T16:30:44.077Z,22.10
2018-05-29T16:33:13.264Z,22.10
2018-05-29T16:35:42.370Z,21.80
2018-05-29T16:38:11.481Z,21.10
2018-05-29T16:40:40.592Z,21.60
2018-05-29T16:43:10.493Z,21.20
2018-05-29T16:45:40.370Z,21.40
2018-05-29T16:48:09.471Z,21.40
2018-05-29T16:50:38.637Z,21.60
2018-05-29T16:53:08.589Z,21.80
2018-05-29T16:55:37.682Z,21.70
2018-05-29T16:58:07.524Z,21.60
2018-05-29T17:00:38.339Z,21.50
2018-05-29T17:03:07.461Z,21.80
2018-05-29T17:05:37.307Z,22.20
2018-05-29T17:08:07.135Z,21.80
2018-05-29T17:10:37.031Z,22.00
2018-05-29T17:13:06.098Z,22.00
2018-05-29T17:15:35.250Z,21.20
2018-05-29T17:18:04.353Z,21.40
2018-05-29T17:20:33.492Z,21.80
2018-05-29T17:23:03.363Z,20.90
2018-05-29T17:25:32.430Z,20.80
2018-05-29T17:28:03.080Z,21.10
2018-05-29T17:30:32.968Z,21.30
2018-05-29T17:33:02.114Z,21.20
2018-05-29T17:35:32.015Z,22.10
2018-05-29T17:38:01.938Z,22.10
2018-05-29T17:40:31.016Z,22.10
2018-05-29T17:43:00.089Z,21.80
2018-05-29T17:45:29.258Z,21.40
2018-05-29T17:47:58.375Z,21.60
2018-05-29T17:50:27.523Z,21.10
2018-05-29T17:52:56.624Z,21.90
2018-05-29T17:55:25.727Z,21.10
2018-05-29T17:57:54.916Z,20.90
2018-05-29T18:00:24.000Z,21.00
2018-05-29T18:02:53.202Z,21.00
2018-05-29T18:05:22.769Z,20.80
2018-05-29T18:07:51.925Z,21.30
2018-05-29T18:10:21.014Z,21.30
2018-05-29T18:12:50.144Z,21.50
2018-05-29T18:15:19.280Z,21.10
2018-05-29T18:17:48.517Z,21.20
2018-05-29T18:20:17.655Z,21.50
2018-05-29T18:22:46.796Z,21.60
2018-05-29T18:25:16.711Z,22.20
2018-05-29T18:27:45.936Z,22.20
2018-05-29T18:30:15.882Z,22.80
2018-05-29T18:32:45.793Z,22.60
2018-05-29T18:35:15.693Z,23.80
2018-05-29T18:37:44.788Z,23.20
2018-05-29T18:40:13.908Z,23.10
2018-05-29T18:42:43.010Z,23.30
2018-05-29T18:45:12.170Z,23.20
2018-05-29T18:47:42.123Z,23.80
2018-05-29T18:50:11.256Z,23.70
2018-05-29T18:52:40.374Z,23.70
2018-05-29T18:55:09.485Z,23.60
2018-05-29T18:57:38.643Z,23.50
2018-05-29T19:03:01.843Z,24.10
2018-05-29T19:05:30.946Z,24.40
2018-05-29T19:08:01.591Z,24.90
2018-05-29T19:10:30.669Z,24.90
2018-05-29T19:12:59.801Z,24.80
2018-05-29T19:15:28.941Z,25.20
2018-05-29T19:17:59.161Z,25.20
2018-05-29T19:20:28.301Z,25.30
2018-05-29T19:22:58.232Z,25.70
2018-05-29T19:25:28.077Z,25.50
2018-05-29T19:27:57.158Z,25.40
2018-05-29T19:30:27.051Z,25.80
2018-05-29T19:32:56.128Z,25.70
2018-05-29T19:35:25.431Z,25.70
2018-05-29T19:37:54.529Z,25.80
2018-05-29T19:40:24.406Z,25.90
2018-05-29T19:42:53.540Z,25.90
2018-05-29T19:45:22.640Z,26.20
2018-05-29T19:47:52.489Z,26.40
2018-05-29T19:50:21.597Z,26.30
2018-05-29T19:52:50.997Z,26.50
2018-05-29T19:55:20.110Z,26.60
2018-05-29T19:57:49.252Z,26.60
2018-05-29T20:00:19.172Z,27.40
2018-05-29T20:02:48.280Z,27.40
2018-05-29T20:05:17.405Z,27.30
2018-05-29T20:07:47.292Z,27.70
2018-05-29T20:10:16.396Z,27.70
2018-05-29T20:12:45.516Z,27.70
2018-05-29T20:15:14.599Z,27.80
2018-05-29T20:17:43.952Z,28.10
2018-05-29T20:20:13.062Z,27.80
2018-05-29T20:22:42.140Z,28.10
2018-05-29T20:25:11.319Z,28.20
2018-05-29T20:27:41.178Z,28.40
2018-05-29T20:30:10.286Z,28.40
2018-05-29T20:32:39.405Z,28.70
2018-05-29T20:35:08.603Z,29.10
2018-05-29T20:37:37.709Z,29.20
2018-05-29T20:40:07.563Z,29.90
2018-05-29T20:42:36.636Z,29.80
2018-05-29T20:45:06.794Z,29.90
2018-05-29T20:47:35.862Z,29.90
2018-05-29T20:50:04.982Z,29.80
2018-05-29T20:52:34.097Z,29.80
2018-05-29T20:55:03.960Z,30.30
2018-05-29T20:57:33.121Z,29.70
2018-05-29T21:00:02.255Z,29.70
2018-05-29T21:02:32.149Z,29.70
2018-05-29T21:05:01.278Z,29.70
2018-05-29T21:07:30.408Z,30.00
2018-05-29T21:09:59.524Z,30.10
2018-05-29T21:12:28.640Z,30.10
2018-05-29T21:14:57.750Z,30.90
2018-05-29T21:17:26.880Z,30.60
2018-05-29T21:19:55.944Z,30.90
2018-05-29T21:22:25.099Z,30.70
2018-05-29T21:24:54.175Z,30.60
2018-05-29T21:27:23.298Z,30.50
2018-05-29T21:29:53.400Z,30.80
2018-05-29T21:32:22.471Z,30.70
2018-05-29T21:34:52.229Z,30.70
2018-05-29T21:37:21.348Z,31.00
2018-05-29T21:39:50.431Z,31.20
2018-05-29T21:42:19.606Z,30.80
2018-05-29T21:44:48.711Z,30.30
2018-05-29T21:47:18.590Z,30.30
2018-05-29T21:49:47.728Z,30.30
2018-05-29T21:52:17.618Z,30.00
2018-05-29T21:54:46.726Z,30.00
2018-05-29T21:57:15.971Z,29.70
2018-05-29T21:59:45.075Z,29.90
2018-05-29T22:02:14.179Z,29.80
2018-05-29T22:04:43.304Z,30.00
2018-05-29T22:07:12.405Z,29.90
2018-05-29T22:09:41.524Z,30.00
2018-05-29T22:12:11.394Z,29.90
2018-05-29T22:14:40.569Z,29.90
2018-05-29T22:17:09.665Z,29.90
2018-05-29T22:19:38.767Z,30.00
2018-05-29T22:22:07.904Z,30.00
2018-05-29T22:24:37.005Z,30.10
2018-05-29T22:27:06.078Z,30.20
2018-05-29T22:29:35.203Z,30.40
2018-05-29T22:32:04.296Z,30.50
2018-05-29T22:34:33.375Z,30.50
2018-05-29T22:37:03.248Z,30.90
2018-05-29T22:39:32.390Z,30.80
2018-05-29T22:42:01.469Z,30.90
2018-05-29T22:44:30.584Z,31.30
2018-05-29T22:46:59.680Z,31.30
2018-05-29T22:49:28.852Z,31.30
2018-05-29T22:51:58.725Z,32.20
2018-05-29T22:54:27.794Z,31.50
2018-05-29T22:56:56.884Z,32.30
2018-05-29T22:59:26.048Z,31.70
2018-05-29T23:01:55.180Z,32.00
2018-05-29T23:04:24.345Z,32.20
2018-05-29T23:06:54.217Z,32.30
2018-05-29T23:09:23.325Z,32.20
2018-05-29T23:11:52.423Z,32.50
2018-05-29T23:14:21.651Z,32.50
2018-05-29T23:16:50.786Z,32.60
2018-05-29T23:19:19.859Z,33.20
2018-05-29T23:21:49.004Z,33.10
2018-05-29T23:24:18.082Z,33.00
2018-05-29T23:26:47.244Z,33.20
2018-05-29T23:29:16.375Z,33.20
2018-05-29T23:31:46.260Z,33.00
2018-05-29T23:34:15.392Z,33.00
2018-05-29T23:36:44.493Z,33.40
2018-05-29T23:39:13.592Z,33.40
2018-05-29T23:41:42.704Z,33.60
2018-05-29T23:44:11.818Z,33.60
2018-05-29T23:46:40.998Z,33.70
2018-05-29T23:49:10.138Z,34.10
2018-05-29T23:51:39.292Z,34.10
2018-05-29T23:54:09.202Z,34.50
2018-05-29T23:56:38.370Z,34.40
2018-05-29T23:59:07.475Z,34.70
